createdAt,value
2019-01-09T18:58:32.114Z,101733.91
2019-01-09T18:59:37.264Z,101733.66
2019-01-09T19:03:04.240Z,101734.94
2019-01-09T19:04:09.423Z,101736.47
2019-01-09T19:05:14.630Z,101739.66
2019-01-09T19:06:19.797Z,101736.66
2019-01-09T19:07:24.560Z,101738.55
2019-01-09T19:08:29.765Z,101746.19
2019-01-09T19:09:34.574Z,101742.67
2019-01-09T19:10:39.808Z,101740.11
2019-01-09T19:11:50.487Z,101737.64
2019-01-09T19:12:51.987Z,101738.36
2019-01-09T19:13:57.544Z,101733.83
2019-01-09T19:15:02.736Z,101734.22
2019-01-09T19:16:07.608Z,101737.78
2019-01-09T19:17:12.750Z,101742.02
2019-01-09T19:18:17.249Z,101741.47
2019-01-09T19:19:22.085Z,101738.34
2019-01-09T19:20:27.260Z,101744.55
2019-01-09T19:21:32.422Z,101733.91
2019-01-09T19:22:38.022Z,101745.80
2019-01-09T19:23:43.190Z,101744.12
2019-01-09T19:24:49.018Z,101750.73
2019-01-09T19:25:54.204Z,101750.29
2019-01-09T19:26:59.382Z,101746.59
2019-01-09T19:28:03.908Z,101744.61
2019-01-09T19:29:09.171Z,101746.38
2019-01-09T19:30:20.739Z,101747.34
2019-01-09T19:31:26.565Z,101752.98
2019-01-09T19:32:34.342Z,101758.48
2019-01-09T19:33:39.517Z,101751.30
2019-01-09T19:34:44.305Z,101758.39
2019-01-09T19:35:49.519Z,101751.96
2019-01-09T19:36:54.399Z,101751.22
2019-01-09T19:37:58.901Z,101762.62
2019-01-09T19:39:05.195Z,101755.05
2019-01-09T19:40:10.115Z,101759.31
2019-01-09T19:41:17.278Z,101761.86
2019-01-09T19:42:22.191Z,101760.11
2019-01-09T19:43:26.997Z,101762.00
2019-01-09T19:44:32.954Z,101761.38
2019-01-09T19:45:37.771Z,101762.97
2019-01-09T19:46:42.915Z,101765.70
2019-01-09T19:47:48.110Z,101766.31
2019-01-09T19:48:53.383Z,101770.00
2019-01-09T19:49:57.893Z,101764.73
2019-01-09T19:51:03.127Z,101760.98
2019-01-09T19:52:08.349Z,101768.95
2019-01-09T19:53:13.144Z,101769.66
2019-01-09T19:54:18.116Z,101768.33
2019-01-09T19:55:23.568Z,101769.21
2019-01-09T19:56:28.827Z,101768.25
2019-01-09T19:57:33.964Z,101772.55
2019-01-09T19:58:39.531Z,101776.38
2019-01-09T19:59:44.296Z,101775.84
2019-01-09T20:00:49.054Z,101782.27
2019-01-09T20:01:53.821Z,101786.34
2019-01-09T20:02:59.728Z,101782.91
2019-01-09T20:04:04.499Z,101784.90
2019-01-09T20:05:09.448Z,101789.84
2019-01-09T20:06:14.220Z,101789.07
2019-01-09T20:07:19.390Z,101790.72
2019-01-09T20:08:24.819Z,101789.95
2019-01-09T20:09:30.094Z,101799.66
2019-01-09T20:10:34.572Z,101792.24
2019-01-09T20:11:39.517Z,101788.59
2019-01-09T20:12:44.763Z,101792.64
2019-01-09T20:13:49.730Z,101791.52
2019-01-09T20:14:54.539Z,101789.38
2019-01-09T20:15:59.673Z,101790.39
2019-01-09T20:17:05.182Z,101803.62
2019-01-09T20:18:10.395Z,101797.73
2019-01-09T20:19:15.733Z,101797.25
2019-01-09T20:20:21.101Z,101798.39
2019-01-09T20:21:25.591Z,101794.31
2019-01-09T20:22:30.423Z,101795.37
2019-01-09T20:23:35.212Z,101800.29
2019-01-09T20:24:40.089Z,101808.74
2019-01-09T20:25:44.868Z,101801.88
2019-01-09T20:26:50.088Z,101809.08
2019-01-09T20:27:55.271Z,101805.63
2019-01-09T20:29:00.376Z,101807.93
2019-01-09T20:30:06.237Z,101808.11
2019-01-09T20:31:11.095Z,101808.41
2019-01-09T20:32:16.819Z,101806.97
2019-01-09T20:33:21.772Z,101810.19
2019-01-09T20:34:27.122Z,101812.72
2019-01-09T20:35:31.663Z,101815.77
2019-01-09T20:36:37.522Z,101809.84
2019-01-09T20:37:43.546Z,101812.00
2019-01-09T20:38:48.327Z,101815.38
2019-01-09T20:39:53.729Z,101818.45
2019-01-09T20:40:58.249Z,101824.50
2019-01-09T20:42:03.058Z,101822.61
2019-01-09T20:43:07.998Z,101824.59
2019-01-09T20:44:13.858Z,101825.47
2019-01-09T20:45:18.978Z,101824.27
2019-01-09T20:46:23.508Z,101824.91
2019-01-09T20:47:28.906Z,101826.25
2019-01-09T20:48:34.305Z,101830.63
2019-01-09T20:49:39.409Z,101830.32
2019-01-09T20:50:44.395Z,101836.78
2019-01-09T20:51:49.904Z,101827.38
2019-01-09T20:52:54.790Z,101828.58
2019-01-09T20:53:59.443Z,101831.52
2019-01-09T20:55:04.653Z,101835.34
2019-01-09T20:56:09.957Z,101828.97
2019-01-09T20:57:15.081Z,101836.06
2019-01-09T20:58:19.726Z,101839.25
2019-01-09T20:59:25.189Z,101841.95
2019-01-09T21:00:31.122Z,101837.25
2019-01-09T21:01:35.873Z,101842.78
2019-01-09T21:02:40.726Z,101839.19
2019-01-09T21:03:45.882Z,101846.83
2019-01-09T21:04:50.778Z,101851.62
2019-01-09T21:05:55.488Z,101856.23
2019-01-09T21:07:00.991Z,101860.31
2019-01-09T21:08:06.216Z,101854.81
2019-01-09T21:09:11.042Z,101862.05
2019-01-09T21:10:15.985Z,101860.84
2019-01-09T21:11:21.298Z,101868.34
2019-01-09T21:12:26.115Z,101869.05
2019-01-09T21:13:31.483Z,101860.27
2019-01-09T21:14:36.274Z,101867.94
2019-01-09T21:15:41.092Z,101869.52
2019-01-09T21:16:46.473Z,101872.72
2019-01-09T21:17:51.302Z,101873.75
2019-01-09T21:18:56.471Z,101870.72
2019-01-09T21:20:01.747Z,101873.09
2019-01-09T21:21:06.584Z,101866.53
2019-01-09T21:22:11.040Z,101864.89
2019-01-09T21:23:15.843Z,101864.17
2019-01-09T21:24:21.078Z,101874.37
2019-01-09T21:25:26.478Z,101863.98
2019-01-09T21:26:31.538Z,101866.87
2019-01-09T21:27:41.963Z,101874.64
2019-01-09T21:28:42.712Z,101873.81
2019-01-09T21:29:47.804Z,101865.33
2019-01-09T21:30:52.846Z,101865.41
2019-01-09T21:31:57.746Z,101866.50
2019-01-09T21:33:02.479Z,101869.27
2019-01-09T21:34:07.235Z,101868.08
2019-01-09T21:35:13.084Z,101864.74
2019-01-09T21:36:18.289Z,101874.73
2019-01-09T21:37:23.037Z,101867.17
2019-01-09T21:38:27.494Z,101872.15
2019-01-09T21:39:32.999Z,101868.54
2019-01-09T21:40:37.770Z,101866.33
2019-01-09T21:41:42.210Z,101878.64
2019-01-09T21:42:47.356Z,101873.23
2019-01-09T21:43:52.644Z,101878.34
2019-01-09T21:44:57.742Z,101880.19
2019-01-09T21:46:02.220Z,101874.63
2019-01-09T21:47:07.381Z,101880.67
2019-01-09T21:48:12.190Z,101887.77
2019-01-09T21:49:16.960Z,101883.47
2019-01-09T21:50:24.426Z,101884.50
2019-01-09T21:51:29.291Z,101888.26
2019-01-09T21:52:34.070Z,101893.02
2019-01-09T21:53:39.371Z,101889.86
2019-01-09T21:54:43.899Z,101887.86
2019-01-09T21:55:48.630Z,101895.91
2019-01-09T21:56:53.120Z,101893.75
2019-01-09T21:57:58.435Z,101894.41
2019-01-09T21:59:02.894Z,101890.98
2019-01-09T22:00:11.489Z,101893.86
2019-01-09T22:01:16.944Z,101896.78
2019-01-09T22:02:22.276Z,101893.05
2019-01-09T22:03:27.449Z,101897.99
2019-01-09T22:04:34.258Z,101891.75
2019-01-09T22:05:39.019Z,101898.30
2019-01-09T22:06:43.798Z,101892.88
2019-01-09T22:07:49.157Z,101896.64
2019-01-09T22:08:54.278Z,101893.86
2019-01-09T22:09:59.418Z,101904.45
2019-01-09T22:11:04.298Z,101905.62
2019-01-09T22:12:09.232Z,101904.22
2019-01-09T22:13:14.474Z,101906.12
2019-01-09T22:14:19.196Z,101901.36
2019-01-09T22:15:24.338Z,101907.19
2019-01-09T22:16:29.242Z,101910.74
2019-01-09T22:17:34.363Z,101912.41
2019-01-09T22:18:39.161Z,101915.08
2019-01-09T22:19:44.313Z,101911.69
2019-01-09T22:20:49.715Z,101912.50
2019-01-09T22:21:54.887Z,101912.20
2019-01-09T22:22:59.649Z,101912.88
2019-01-09T22:24:04.380Z,101914.84
2019-01-09T22:25:10.230Z,101921.77
2019-01-09T22:26:15.348Z,101914.89
2019-01-09T22:27:20.141Z,101916.27
2019-01-09T22:28:25.639Z,101917.94
2019-01-09T22:29:33.426Z,101907.57
2019-01-09T22:30:38.614Z,101917.09
2019-01-09T22:31:43.697Z,101914.97
2019-01-09T22:32:48.855Z,101918.25
2019-01-09T22:33:54.008Z,101920.25
2019-01-09T22:34:58.797Z,101913.20
2019-01-09T22:36:03.668Z,101912.81
2019-01-09T22:37:08.727Z,101910.27
2019-01-09T22:38:13.807Z,101913.20
2019-01-09T22:39:18.923Z,101914.97
2019-01-09T22:40:24.967Z,101922.41
2019-01-09T22:41:30.065Z,101927.32
2019-01-09T22:42:34.831Z,101924.77
2019-01-09T22:43:39.328Z,101929.96
2019-01-09T22:44:44.099Z,101928.94
2019-01-09T22:45:49.315Z,101935.13
2019-01-09T22:46:53.765Z,101925.90
2019-01-09T22:47:58.919Z,101926.53
2019-01-09T22:49:03.766Z,101928.94
2019-01-09T22:50:10.941Z,101927.56
2019-01-09T22:51:16.242Z,101936.80
2019-01-09T22:52:21.395Z,101927.32
2019-01-09T22:53:26.140Z,101936.37
2019-01-09T22:54:36.315Z,101937.80
2019-01-09T22:55:38.044Z,101936.43
2019-01-09T22:56:42.510Z,101932.84
2019-01-09T22:57:47.615Z,101931.03
2019-01-09T22:58:52.855Z,101933.67
2019-01-09T22:59:58.106Z,101938.43
2019-01-09T23:01:07.948Z,101937.31
2019-01-09T23:02:12.499Z,101938.28
2019-01-09T23:03:17.086Z,101938.04
2019-01-09T23:04:21.996Z,101940.19
2019-01-09T23:05:27.512Z,101937.80
2019-01-09T23:06:32.550Z,101947.55
2019-01-09T23:07:37.299Z,101941.95
2019-01-09T23:08:42.351Z,101940.92
2019-01-09T23:09:47.509Z,101947.36
2019-01-09T23:10:55.031Z,101949.84
2019-01-09T23:11:59.072Z,101953.19
2019-01-09T23:13:04.702Z,101948.63
2019-01-09T23:14:09.424Z,101944.31
2019-01-09T23:15:14.700Z,101948.18
2019-01-09T23:16:19.465Z,101948.44
2019-01-09T23:17:24.536Z,101949.70
2019-01-09T23:18:29.873Z,101949.52
2019-01-09T23:19:34.932Z,101944.11
2019-01-09T23:20:40.027Z,101947.36
2019-01-09T23:21:44.773Z,101950.84
2019-01-09T23:22:49.246Z,101951.23
2019-01-09T23:23:54.400Z,101948.20
2019-01-09T23:24:58.890Z,101947.02
2019-01-09T23:26:03.371Z,101943.64
2019-01-09T23:27:08.139Z,101943.59
2019-01-09T23:28:12.653Z,101947.36
2019-01-09T23:29:18.070Z,101936.61
2019-01-09T23:30:23.223Z,101945.75
2019-01-09T23:31:28.408Z,101944.47
2019-01-09T23:32:33.601Z,101945.11
2019-01-09T23:33:38.693Z,101939.61
2019-01-09T23:34:43.440Z,101943.49
2019-01-09T23:35:48.597Z,101943.44
2019-01-09T23:36:53.695Z,101945.89
2019-01-09T23:37:59.145Z,101951.53
2019-01-09T23:39:04.526Z,101945.41
2019-01-09T23:40:09.538Z,101946.92
2019-01-09T23:41:14.758Z,101952.11
2019-01-09T23:42:19.866Z,101954.12
2019-01-09T23:43:25.364Z,101951.48
2019-01-09T23:44:30.153Z,101951.83
2019-01-09T23:45:34.918Z,101954.77
2019-01-09T23:46:40.386Z,101951.29
2019-01-09T23:47:45.878Z,101956.53
2019-01-09T23:48:51.434Z,101958.78
2019-01-09T23:49:56.291Z,101958.94
2019-01-09T23:51:01.869Z,101962.26
2019-01-09T23:52:06.647Z,101965.02
2019-01-09T23:53:11.862Z,101961.83
2019-01-09T23:54:16.630Z,101966.14
2019-01-09T23:55:22.400Z,101964.38
2019-01-09T23:56:27.158Z,101967.52
2019-01-09T23:57:32.417Z,101967.52
2019-01-09T23:58:37.989Z,101970.02
2019-01-09T23:59:42.848Z,101963.55
